sensor_id;sensor_type;location;lat;lon;timestamp;temperature;humidity
8832;DHT22;4452;50.756;4.472;2022-09-03T00:00:19;18.70;99.90
8832;DHT22;4452;50.756;4.472;2022-09-03T00:05:55;18.70;99.90
8832;DHT22;4452;50.756;4.472;2022-09-03T00:08:39;18.70;99.90
8832;DHT22;4452;50.756;4.472;2022-09-03T00:14:18;18.70;99.90
8832;DHT22;4452;50.756;4.472;2022-09-03T00:16:48;18.60;99.90
8832;DHT22;4452;50.756;4.472;2022-09-03T00:19:17;18.50;99.90
8832;DHT22;4452;50.756;4.472;2022-09-03T00:21:48;18.50;99.90
8832;DHT22;4452;50.756;4.472;2022-09-03T00:24:18;18.20;99.90
8832;DHT22;4452;50.756;4.472;2022-09-03T00:26:52;18.20;99.90
8832;DHT22;4452;50.756;4.472;2022-09-03T00:29:32;18.30;99.90
8832;DHT22;4452;50.756;4.472;2022-09-03T00:32:08;18.30;99.90
8832;DHT22;4452;50.756;4.472;2022-09-03T00:34:39;18.20;99.90
8832;DHT22;4452;50.756;4.472;2022-09-03T00:37:10;18.10;99.90
8832;DHT22;4452;50.756;4.472;2022-09-03T00:39:36;18.10;99.90
8832;DHT22;4452;50.756;4.472;2022-09-03T00:43:16;18.10;99.90
8832;DHT22;4452;50.756;4.472;2022-09-03T00:45:16;18.20;99.90
8832;DHT22;4452;50.756;4.472;2022-09-03T00:48:29;18.20;99.90
8832;DHT22;4452;50.756;4.472;2022-09-03T00:50:54;18.20;99.90
8832;DHT22;4452;50.756;4.472;2022-09-03T00:56:35;18.30;99.90
8832;DHT22;4452;50.756;4.472;2022-09-03T00:59:27;18.30;99.90
8832;DHT22;4452;50.756;4.472;2022-09-03T01:02:16;18.30;99.90
8832;DHT22;4452;50.756;4.472;2022-09-03T01:05:09;18.30;99.90
8832;DHT22;4452;50.756;4.472;2022-09-03T01:13:22;18.40;99.90
8832;DHT22;4452;50.756;4.472;2022-09-03T01:16:12;18.40;99.90
8832;DHT22;4452;50.756;4.472;2022-09-03T01:27:23;18.30;99.90
8832;DHT22;4452;50.756;4.472;2022-09-03T01:37:39;18.30;99.90
8832;DHT22;4452;50.756;4.472;2022-09-03T01:45:34;18.30;99.90
8832;DHT22;4452;50.756;4.472;2022-09-03T02:01:52;18.40;99.90
8832;DHT22;4452;50.756;4.472;2022-09-03T02:04:23;18.40;99.90
8832;DHT22;4452;50.756;4.472;2022-09-03T02:06:51;18.40;99.90
8832;DHT22;4452;50.756;4.472;2022-09-03T02:09:18;18.40;99.90
8832;DHT22;4452;50.756;4.472;2022-09-03T02:11:49;18.40;99.90
8832;DHT22;4452;50.756;4.472;2022-09-03T02:14:18;18.40;99.90
8832;DHT22;4452;50.756;4.472;2022-09-03T02:16:43;18.40;99.90
8832;DHT22;4452;50.756;4.472;2022-09-03T02:19:13;18.50;99.90
8832;DHT22;4452;50.756;4.472;2022-09-03T02:21:50;18.50;99.90
8832;DHT22;4452;50.756;4.472;2022-09-03T02:24:16;18.50;99.90
8832;DHT22;4452;50.756;4.472;2022-09-03T02:26:43;18.50;99.90
8832;DHT22;4452;50.756;4.472;2022-09-03T02:29:09;18.50;99.90
8832;DHT22;4452;50.756;4.472;2022-09-03T02:31:36;18.50;99.90
8832;DHT22;4452;50.756;4.472;2022-09-03T02:34:01;18.50;99.90
8832;DHT22;4452;50.756;4.472;2022-09-03T02:36:30;18.40;99.90
8832;DHT22;4452;50.756;4.472;2022-09-03T02:38:57;18.40;99.90
8832;DHT22;4452;50.756;4.472;2022-09-03T02:41:23;18.30;99.90
8832;DHT22;4452;50.756;4.472;2022-09-03T02:46:43;18.30;99.90
8832;DHT22;4452;50.756;4.472;2022-09-03T02:49:09;18.20;99.90
8832;DHT22;4452;50.756;4.472;2022-09-03T02:51:41;18.00;99.90
8832;DHT22;4452;50.756;4.472;2022-09-03T02:54:08;17.90;99.90
8832;DHT22;4452;50.756;4.472;2022-09-03T02:56:35;17.60;99.90
8832;DHT22;4452;50.756;4.472;2022-09-03T02:59:03;17.40;99.90
8832;DHT22;4452;50.756;4.472;2022-09-03T03:01:29;17.40;99.90
8832;DHT22;4452;50.756;4.472;2022-09-03T03:03:55;17.30;99.90
8832;DHT22;4452;50.756;4.472;2022-09-03T03:06:21;17.20;99.90
8832;DHT22;4452;50.756;4.472;2022-09-03T03:08:48;17.30;99.90
8832;DHT22;4452;50.756;4.472;2022-09-03T03:11:15;17.30;99.90
8832;DHT22;4452;50.756;4.472;2022-09-03T03:13:43;17.30;99.90
8832;DHT22;4452;50.756;4.472;2022-09-03T03:16:09;17.30;99.90
8832;DHT22;4452;50.756;4.472;2022-09-03T03:18:35;17.30;99.90
8832;DHT22;4452;50.756;4.472;2022-09-03T03:21:05;17.30;99.90
8832;DHT22;4452;50.756;4.472;2022-09-03T03:23:32;17.40;99.90
8832;DHT22;4452;50.756;4.472;2022-09-03T03:26:03;17.40;99.90
8832;DHT22;4452;50.756;4.472;2022-09-03T03:28:29;17.20;99.90
8832;DHT22;4452;50.756;4.472;2022-09-03T03:31:05;17.30;99.90
8832;DHT22;4452;50.756;4.472;2022-09-03T03:33:31;17.30;99.90
8832;DHT22;4452;50.756;4.472;2022-09-03T03:35:57;17.10;99.90
8832;DHT22;4452;50.756;4.472;2022-09-03T03:38:23;17.20;99.90
8832;DHT22;4452;50.756;4.472;2022-09-03T03:40:49;17.20;99.90
8832;DHT22;4452;50.756;4.472;2022-09-03T03:43:14;17.10;99.90
8832;DHT22;4452;50.756;4.472;2022-09-03T03:45:40;16.80;99.90
8832;DHT22;4452;50.756;4.472;2022-09-03T03:48:05;16.50;99.90
8832;DHT22;4452;50.756;4.472;2022-09-03T03:50:31;16.50;99.90
8832;DHT22;4452;50.756;4.472;2022-09-03T03:53:00;16.50;99.90
8832;DHT22;4452;50.756;4.472;2022-09-03T03:55:25;16.50;99.90
8832;DHT22;4452;50.756;4.472;2022-09-03T03:57:51;16.50;99.90
8832;DHT22;4452;50.756;4.472;2022-09-03T04:00:17;16.60;99.90
8832;DHT22;4452;50.756;4.472;2022-09-03T04:02:42;16.50;99.90
8832;DHT22;4452;50.756;4.472;2022-09-03T04:05:08;16.60;99.90
8832;DHT22;4452;50.756;4.472;2022-09-03T04:07:34;16.60;99.90
8832;DHT22;4452;50.756;4.472;2022-09-03T04:09:59;16.60;99.90
8832;DHT22;4452;50.756;4.472;2022-09-03T04:12:26;16.60;99.90
8832;DHT22;4452;50.756;4.472;2022-09-03T04:14:52;16.50;99.90
8832;DHT22;4452;50.756;4.472;2022-09-03T04:17:17;16.60;99.90
8832;DHT22;4452;50.756;4.472;2022-09-03T04:19:43;16.60;99.90
8832;DHT22;4452;50.756;4.472;2022-09-03T04:22:10;16.50;99.90
8832;DHT22;4452;50.756;4.472;2022-09-03T04:24:36;16.60;99.90
8832;DHT22;4452;50.756;4.472;2022-09-03T04:27:03;16.40;99.90
8832;DHT22;4452;50.756;4.472;2022-09-03T04:29:29;16.40;99.90
8832;DHT22;4452;50.756;4.472;2022-09-03T04:31:55;16.30;99.90
8832;DHT22;4452;50.756;4.472;2022-09-03T04:34:39;16.20;99.90
8832;DHT22;4452;50.756;4.472;2022-09-03T04:37:05;16.30;99.90
8832;DHT22;4452;50.756;4.472;2022-09-03T04:39:30;16.40;99.90
8832;DHT22;4452;50.756;4.472;2022-09-03T04:41:56;16.40;99.90
8832;DHT22;4452;50.756;4.472;2022-09-03T04:44:21;16.40;99.90
8832;DHT22;4452;50.756;4.472;2022-09-03T04:46:47;16.40;99.90
8832;DHT22;4452;50.756;4.472;2022-09-03T04:49:14;16.40;99.90
8832;DHT22;4452;50.756;4.472;2022-09-03T04:51:39;16.30;99.90
8832;DHT22;4452;50.756;4.472;2022-09-03T04:54:05;16.30;99.90
8832;DHT22;4452;50.756;4.472;2022-09-03T04:56:33;16.30;99.90
8832;DHT22;4452;50.756;4.472;2022-09-03T04:59:00;16.30;99.90
8832;DHT22;4452;50.756;4.472;2022-09-03T05:01:28;16.30;99.90
8832;DHT22;4452;50.756;4.472;2022-09-03T05:03:55;16.40;99.90
8832;DHT22;4452;50.756;4.472;2022-09-03T05:06:22;16.30;99.90
8832;DHT22;4452;50.756;4.472;2022-09-03T05:08:50;16.30;99.90
8832;DHT22;4452;50.756;4.472;2022-09-03T05:11:17;16.30;99.90
8832;DHT22;4452;50.756;4.472;2022-09-03T05:13:46;16.40;99.90
8832;DHT22;4452;50.756;4.472;2022-09-03T05:16:13;16.40;99.90
8832;DHT22;4452;50.756;4.472;2022-09-03T05:18:40;16.30;99.90
8832;DHT22;4452;50.756;4.472;2022-09-03T05:21:09;16.30;99.90
8832;DHT22;4452;50.756;4.472;2022-09-03T05:23:40;16.30;99.90
8832;DHT22;4452;50.756;4.472;2022-09-03T05:26:09;16.40;99.90
8832;DHT22;4452;50.756;4.472;2022-09-03T05:28:40;16.40;99.90
8832;DHT22;4452;50.756;4.472;2022-09-03T05:31:12;16.30;99.90
8832;DHT22;4452;50.756;4.472;2022-09-03T05:33:48;16.30;99.90
8832;DHT22;4452;50.756;4.472;2022-09-03T05:36:18;16.40;99.90
8832;DHT22;4452;50.756;4.472;2022-09-03T05:38:49;16.40;99.90
8832;DHT22;4452;50.756;4.472;2022-09-03T05:41:17;16.40;99.90
8832;DHT22;4452;50.756;4.472;2022-09-03T05:43:47;16.30;99.90
8832;DHT22;4452;50.756;4.472;2022-09-03T05:46:24;16.30;99.90
8832;DHT22;4452;50.756;4.472;2022-09-03T05:49:04;16.30;99.90
8832;DHT22;4452;50.756;4.472;2022-09-03T05:51:33;16.30;99.90
8832;DHT22;4452;50.756;4.472;2022-09-03T05:54:00;16.30;99.90
8832;DHT22;4452;50.756;4.472;2022-09-03T05:56:28;16.40;99.90
8832;DHT22;4452;50.756;4.472;2022-09-03T05:58:56;16.50;99.90
8832;DHT22;4452;50.756;4.472;2022-09-03T06:01:28;16.60;99.90
8832;DHT22;4452;50.756;4.472;2022-09-03T06:03:56;16.70;99.90
8832;DHT22;4452;50.756;4.472;2022-09-03T06:06:23;16.60;99.90
8832;DHT22;4452;50.756;4.472;2022-09-03T06:08:52;16.60;99.90
8832;DHT22;4452;50.756;4.472;2022-09-03T06:11:20;16.70;99.90
8832;DHT22;4452;50.756;4.472;2022-09-03T06:13:54;16.80;99.90
8832;DHT22;4452;50.756;4.472;2022-09-03T06:16:20;16.80;99.90
8832;DHT22;4452;50.756;4.472;2022-09-03T06:18:47;16.90;99.90
8832;DHT22;4452;50.756;4.472;2022-09-03T06:21:14;16.90;99.90
8832;DHT22;4452;50.756;4.472;2022-09-03T06:23:40;16.90;99.90
8832;DHT22;4452;50.756;4.472;2022-09-03T06:26:08;16.90;99.90
8832;DHT22;4452;50.756;4.472;2022-09-03T06:28:36;16.90;99.90
8832;DHT22;4452;50.756;4.472;2022-09-03T06:31:04;16.90;99.90
8832;DHT22;4452;50.756;4.472;2022-09-03T06:33:31;17.10;99.90
8832;DHT22;4452;50.756;4.472;2022-09-03T06:35:59;17.20;99.90
8832;DHT22;4452;50.756;4.472;2022-09-03T06:38:27;17.30;99.90
8832;DHT22;4452;50.756;4.472;2022-09-03T06:40:58;17.40;99.90
8832;DHT22;4452;50.756;4.472;2022-09-03T06:43:26;17.40;99.90
8832;DHT22;4452;50.756;4.472;2022-09-03T06:45:57;17.40;99.90
8832;DHT22;4452;50.756;4.472;2022-09-03T06:48:24;17.50;99.90
8832;DHT22;4452;50.756;4.472;2022-09-03T06:51:10;17.50;99.90
8832;DHT22;4452;50.756;4.472;2022-09-03T06:53:38;17.60;99.90
8832;DHT22;4452;50.756;4.472;2022-09-03T06:56:06;17.60;99.90
8832;DHT22;4452;50.756;4.472;2022-09-03T06:58:37;17.70;99.90
8832;DHT22;4452;50.756;4.472;2022-09-03T07:01:09;17.70;99.90
8832;DHT22;4452;50.756;4.472;2022-09-03T07:03:36;17.70;99.90
8832;DHT22;4452;50.756;4.472;2022-09-03T07:06:07;17.80;99.90
8832;DHT22;4452;50.756;4.472;2022-09-03T07:08:33;17.90;99.90
8832;DHT22;4452;50.756;4.472;2022-09-03T07:11:01;18.00;99.90
8832;DHT22;4452;50.756;4.472;2022-09-03T07:13:37;18.10;99.90
8832;DHT22;4452;50.756;4.472;2022-09-03T07:16:07;18.10;99.90
8832;DHT22;4452;50.756;4.472;2022-09-03T07:18:34;18.30;99.90
8832;DHT22;4452;50.756;4.472;2022-09-03T07:21:02;18.30;99.90
8832;DHT22;4452;50.756;4.472;2022-09-03T07:23:29;18.30;99.90
8832;DHT22;4452;50.756;4.472;2022-09-03T07:25:56;18.30;99.90
8832;DHT22;4452;50.756;4.472;2022-09-03T07:28:23;18.30;99.90
8832;DHT22;4452;50.756;4.472;2022-09-03T07:30:53;18.30;99.90
8832;DHT22;4452;50.756;4.472;2022-09-03T07:33:19;18.30;99.90
8832;DHT22;4452;50.756;4.472;2022-09-03T07:35:46;18.40;99.90
8832;DHT22;4452;50.756;4.472;2022-09-03T07:38:16;18.50;99.90
8832;DHT22;4452;50.756;4.472;2022-09-03T07:40:42;18.70;99.90
8832;DHT22;4452;50.756;4.472;2022-09-03T07:43:08;18.80;99.90
8832;DHT22;4452;50.756;4.472;2022-09-03T07:45:34;18.90;99.90
8832;DHT22;4452;50.756;4.472;2022-09-03T07:48:00;19.00;99.90
8832;DHT22;4452;50.756;4.472;2022-09-03T07:50:26;19.00;99.90
8832;DHT22;4452;50.756;4.472;2022-09-03T07:52:55;19.20;99.90
8832;DHT22;4452;50.756;4.472;2022-09-03T07:55:22;19.40;99.90
8832;DHT22;4452;50.756;4.472;2022-09-03T07:57:48;19.60;99.90
8832;DHT22;4452;50.756;4.472;2022-09-03T08:00:14;19.80;99.90
8832;DHT22;4452;50.756;4.472;2022-09-03T08:02:40;20.00;99.90
8832;DHT22;4452;50.756;4.472;2022-09-03T08:05:05;20.10;99.90
8832;DHT22;4452;50.756;4.472;2022-09-03T08:07:31;20.40;99.90
8832;DHT22;4452;50.756;4.472;2022-09-03T08:09:57;20.60;99.90
8832;DHT22;4452;50.756;4.472;2022-09-03T08:12:23;20.50;99.90
8832;DHT22;4452;50.756;4.472;2022-09-03T08:14:49;20.40;99.90
8832;DHT22;4452;50.756;4.472;2022-09-03T08:17:15;20.50;99.90
8832;DHT22;4452;50.756;4.472;2022-09-03T08:19:40;20.60;99.90
8832;DHT22;4452;50.756;4.472;2022-09-03T08:22:08;20.80;99.90
8832;DHT22;4452;50.756;4.472;2022-09-03T08:24:35;20.80;99.90
8832;DHT22;4452;50.756;4.472;2022-09-03T08:27:00;20.70;99.90
8832;DHT22;4452;50.756;4.472;2022-09-03T08:29:26;20.90;99.90
8832;DHT22;4452;50.756;4.472;2022-09-03T08:31:52;20.90;99.90
8832;DHT22;4452;50.756;4.472;2022-09-03T08:34:18;21.10;99.90
8832;DHT22;4452;50.756;4.472;2022-09-03T08:36:44;21.10;99.90
8832;DHT22;4452;50.756;4.472;2022-09-03T08:39:11;21.10;99.90
8832;DHT22;4452;50.756;4.472;2022-09-03T08:44:24;21.30;99.90
8832;DHT22;4452;50.756;4.472;2022-09-03T08:47:39;21.30;99.90
8832;DHT22;4452;50.756;4.472;2022-09-03T08:55:30;21.40;99.90
8832;DHT22;4452;50.756;4.472;2022-09-03T08:58:10;21.50;99.90
8832;DHT22;4452;50.756;4.472;2022-09-03T09:05:50;21.60;99.90
8832;DHT22;4452;50.756;4.472;2022-09-03T09:11:27;21.70;99.90
8832;DHT22;4452;50.756;4.472;2022-09-03T09:14:04;21.50;99.90
8832;DHT22;4452;50.756;4.472;2022-09-03T09:20:02;21.70;99.90
8832;DHT22;4452;50.756;4.472;2022-09-03T09:22:35;21.80;99.90
8832;DHT22;4452;50.756;4.472;2022-09-03T09:25:05;21.80;99.90
8832;DHT22;4452;50.756;4.472;2022-09-03T09:27:33;22.10;99.90
8832;DHT22;4452;50.756;4.472;2022-09-03T09:30:04;22.30;99.90
8832;DHT22;4452;50.756;4.472;2022-09-03T09:32:29;22.30;99.90
8832;DHT22;4452;50.756;4.472;2022-09-03T09:34:56;22.30;99.90
8832;DHT22;4452;50.756;4.472;2022-09-03T09:37:22;22.20;99.90
8832;DHT22;4452;50.756;4.472;2022-09-03T09:39:58;22.30;99.90
8832;DHT22;4452;50.756;4.472;2022-09-03T09:42:24;22.40;99.90
8832;DHT22;4452;50.756;4.472;2022-09-03T09:44:50;22.50;99.90
8832;DHT22;4452;50.756;4.472;2022-09-03T09:47:24;22.40;99.90
8832;DHT22;4452;50.756;4.472;2022-09-03T09:49:57;22.40;99.90
8832;DHT22;4452;50.756;4.472;2022-09-03T09:52:25;22.50;99.90
8832;DHT22;4452;50.756;4.472;2022-09-03T09:55:05;22.60;99.90
8832;DHT22;4452;50.756;4.472;2022-09-03T09:57:32;22.40;99.90
8832;DHT22;4452;50.756;4.472;2022-09-03T10:00:13;22.30;99.90
8832;DHT22;4452;50.756;4.472;2022-09-03T10:02:48;22.50;99.90
8832;DHT22;4452;50.756;4.472;2022-09-03T10:05:20;22.60;99.90
8832;DHT22;4452;50.756;4.472;2022-09-03T10:08:00;22.80;99.90
8832;DHT22;4452;50.756;4.472;2022-09-03T10:10:27;23.00;99.90
8832;DHT22;4452;50.756;4.472;2022-09-03T10:13:09;23.20;99.90
8832;DHT22;4452;50.756;4.472;2022-09-03T10:16:01;23.40;99.90
8832;DHT22;4452;50.756;4.472;2022-09-03T10:18:43;23.80;99.90
8832;DHT22;4452;50.756;4.472;2022-09-03T10:26:42;24.20;99.90
8832;DHT22;4452;50.756;4.472;2022-09-03T10:29:11;24.40;99.90
8832;DHT22;4452;50.756;4.472;2022-09-03T10:37:17;25.20;99.90
8832;DHT22;4452;50.756;4.472;2022-09-03T10:46:01;25.40;99.90
8832;DHT22;4452;50.756;4.472;2022-09-03T10:48:54;25.60;99.90
8832;DHT22;4452;50.756;4.472;2022-09-03T10:51:42;25.50;99.90
8832;DHT22;4452;50.756;4.472;2022-09-03T10:57:50;25.50;99.90
8832;DHT22;4452;50.756;4.472;2022-09-03T11:00:16;25.60;99.90
8832;DHT22;4452;50.756;4.472;2022-09-03T11:05:23;25.40;99.90
8832;DHT22;4452;50.756;4.472;2022-09-03T11:08:15;25.50;99.90
8832;DHT22;4452;50.756;4.472;2022-09-03T11:10:53;24.80;99.90
8832;DHT22;4452;50.756;4.472;2022-09-03T11:13:32;25.10;99.90
8832;DHT22;4452;50.756;4.472;2022-09-03T11:16:10;25.10;99.90
8832;DHT22;4452;50.756;4.472;2022-09-03T11:18:50;24.60;99.90
8832;DHT22;4452;50.756;4.472;2022-09-03T11:21:24;24.30;99.90
8832;DHT22;4452;50.756;4.472;2022-09-03T11:24:11;24.40;99.90
8832;DHT22;4452;50.756;4.472;2022-09-03T11:26:45;24.40;99.90
8832;DHT22;4452;50.756;4.472;2022-09-03T11:29:45;24.70;99.90
8832;DHT22;4452;50.756;4.472;2022-09-03T11:32:17;24.80;99.90
8832;DHT22;4452;50.756;4.472;2022-09-03T11:34:50;24.60;99.90
8832;DHT22;4452;50.756;4.472;2022-09-03T11:37:21;24.50;99.90
8832;DHT22;4452;50.756;4.472;2022-09-03T11:40:06;24.60;99.90
8832;DHT22;4452;50.756;4.472;2022-09-03T11:42:39;24.70;99.90
8832;DHT22;4452;50.756;4.472;2022-09-03T11:47:44;25.30;99.90
8832;DHT22;4452;50.756;4.472;2022-09-03T11:50:32;25.60;99.90
8832;DHT22;4452;50.756;4.472;2022-09-03T11:58:34;25.60;99.90
8832;DHT22;4452;50.756;4.472;2022-09-03T12:01:09;25.60;99.90
8832;DHT22;4452;50.756;4.472;2022-09-03T12:03:41;25.80;99.90
8832;DHT22;4452;50.756;4.472;2022-09-03T12:06:31;25.70;99.90
8832;DHT22;4452;50.756;4.472;2022-09-03T12:12:11;25.90;99.90
8832;DHT22;4452;50.756;4.472;2022-09-03T12:17:47;26.70;99.90
8832;DHT22;4452;50.756;4.472;2022-09-03T12:20:36;27.40;99.90
8832;DHT22;4452;50.756;4.472;2022-09-03T12:23:01;27.50;99.90
8832;DHT22;4452;50.756;4.472;2022-09-03T12:25:27;27.00;99.90
8832;DHT22;4452;50.756;4.472;2022-09-03T12:27:53;26.40;99.90
8832;DHT22;4452;50.756;4.472;2022-09-03T12:30:22;26.40;99.90
8832;DHT22;4452;50.756;4.472;2022-09-03T12:32:49;26.90;99.90
8832;DHT22;4452;50.756;4.472;2022-09-03T12:35:20;26.80;99.90
8832;DHT22;4452;50.756;4.472;2022-09-03T12:37:46;27.40;99.90
8832;DHT22;4452;50.756;4.472;2022-09-03T12:40:24;27.20;99.90
8832;DHT22;4452;50.756;4.472;2022-09-03T12:42:51;26.70;99.90
8832;DHT22;4452;50.756;4.472;2022-09-03T12:45:24;27.30;99.90
8832;DHT22;4452;50.756;4.472;2022-09-03T12:47:51;26.80;99.90
8832;DHT22;4452;50.756;4.472;2022-09-03T12:50:20;26.10;99.90
8832;DHT22;4452;50.756;4.472;2022-09-03T12:52:55;25.80;99.90
8832;DHT22;4452;50.756;4.472;2022-09-03T12:55:35;25.60;99.90
8832;DHT22;4452;50.756;4.472;2022-09-03T12:58:21;25.70;99.90
8832;DHT22;4452;50.756;4.472;2022-09-03T13:00:53;26.30;99.90
8832;DHT22;4452;50.756;4.472;2022-09-03T13:05:57;27.70;99.90
8832;DHT22;4452;50.756;4.472;2022-09-03T13:08:31;27.90;99.90
8832;DHT22;4452;50.756;4.472;2022-09-03T13:11:00;27.70;99.90
8832;DHT22;4452;50.756;4.472;2022-09-03T13:13:31;27.60;99.90
8832;DHT22;4452;50.756;4.472;2022-09-03T13:19:21;26.40;99.90
8832;DHT22;4452;50.756;4.472;2022-09-03T13:24:59;27.20;99.90
8832;DHT22;4452;50.756;4.472;2022-09-03T13:28:30;26.40;99.90
8832;DHT22;4452;50.756;4.472;2022-09-03T13:31:04;26.30;99.90
8832;DHT22;4452;50.756;4.472;2022-09-03T13:33:34;27.20;99.90
8832;DHT22;4452;50.756;4.472;2022-09-03T13:36:21;27.50;99.90
8832;DHT22;4452;50.756;4.472;2022-09-03T13:41:45;27.00;99.90
8832;DHT22;4452;50.756;4.472;2022-09-03T13:44:30;26.40;99.90
8832;DHT22;4452;50.756;4.472;2022-09-03T13:47:04;26.70;99.90
8832;DHT22;4452;50.756;4.472;2022-09-03T13:49:42;26.50;99.90
8832;DHT22;4452;50.756;4.472;2022-09-03T13:52:52;26.20;99.90
8832;DHT22;4452;50.756;4.472;2022-09-03T14:05:42;26.10;99.90
8832;DHT22;4452;50.756;4.472;2022-09-03T14:08:34;26.00;99.90
8832;DHT22;4452;50.756;4.472;2022-09-03T14:19:35;26.50;99.90
8832;DHT22;4452;50.756;4.472;2022-09-03T14:22:14;27.00;99.90
8832;DHT22;4452;50.756;4.472;2022-09-03T14:27:25;26.90;99.90
8832;DHT22;4452;50.756;4.472;2022-09-03T14:32:55;26.90;99.90
8832;DHT22;4452;50.756;4.472;2022-09-03T14:35:39;26.80;99.90
8832;DHT22;4452;50.756;4.472;2022-09-03T14:41:03;27.10;99.90
8832;DHT22;4452;50.756;4.472;2022-09-03T14:44:02;26.90;99.90
8832;DHT22;4452;50.756;4.472;2022-09-03T15:00:53;27.60;99.90
8832;DHT22;4452;50.756;4.472;2022-09-03T15:11:58;25.80;99.90
8832;DHT22;4452;50.756;4.472;2022-09-03T15:17:31;25.60;99.90
8832;DHT22;4452;50.756;4.472;2022-09-03T15:20:20;25.70;99.90
8832;DHT22;4452;50.756;4.472;2022-09-03T15:29:10;25.10;99.90
8832;DHT22;4452;50.756;4.472;2022-09-03T15:32:17;24.80;99.90
8832;DHT22;4452;50.756;4.472;2022-09-03T15:37:36;24.80;99.90
8832;DHT22;4452;50.756;4.472;2022-09-03T15:42:46;25.20;99.90
8832;DHT22;4452;50.756;4.472;2022-09-03T15:45:20;26.20;99.90
8832;DHT22;4452;50.756;4.472;2022-09-03T15:47:55;27.20;99.90
8832;DHT22;4452;50.756;4.472;2022-09-03T15:50:34;28.30;99.90
8832;DHT22;4452;50.756;4.472;2022-09-03T15:55:41;29.00;99.90
8832;DHT22;4452;50.756;4.472;2022-09-03T15:58:24;28.50;99.90
8832;DHT22;4452;50.756;4.472;2022-09-03T16:00:59;27.30;99.90
8832;DHT22;4452;50.756;4.472;2022-09-03T16:03:33;27.00;99.90
8832;DHT22;4452;50.756;4.472;2022-09-03T16:06:42;26.40;99.90
8832;DHT22;4452;50.756;4.472;2022-09-03T16:15:18;25.50;99.90
8832;DHT22;4452;50.756;4.472;2022-09-03T16:18:04;26.70;99.90
8832;DHT22;4452;50.756;4.472;2022-09-03T16:20:57;28.40;99.90
8832;DHT22;4452;50.756;4.472;2022-09-03T16:26:35;30.10;99.90
8832;DHT22;4452;50.756;4.472;2022-09-03T16:29:14;29.50;99.90
8832;DHT22;4452;50.756;4.472;2022-09-03T16:38:00;27.70;99.90
8832;DHT22;4452;50.756;4.472;2022-09-03T16:48:34;25.60;99.90
8832;DHT22;4452;50.756;4.472;2022-09-03T16:57:36;25.60;99.90
8832;DHT22;4452;50.756;4.472;2022-09-03T17:05:11;24.60;99.90
8832;DHT22;4452;50.756;4.472;2022-09-03T17:07:54;24.40;99.90
8832;DHT22;4452;50.756;4.472;2022-09-03T17:13:40;24.00;99.90
8832;DHT22;4452;50.756;4.472;2022-09-03T17:16:34;23.90;99.90
8832;DHT22;4452;50.756;4.472;2022-09-03T17:19:10;24.00;99.90
8832;DHT22;4452;50.756;4.472;2022-09-03T17:22:15;23.80;99.90
8832;DHT22;4452;50.756;4.472;2022-09-03T17:24:51;23.70;99.90
8832;DHT22;4452;50.756;4.472;2022-09-03T17:27:33;23.60;99.90
8832;DHT22;4452;50.756;4.472;2022-09-03T17:30:14;23.60;99.90
8832;DHT22;4452;50.756;4.472;2022-09-03T17:36:06;23.40;99.90
8832;DHT22;4452;50.756;4.472;2022-09-03T17:41:48;23.30;99.90
8832;DHT22;4452;50.756;4.472;2022-09-03T17:44:44;23.30;99.90
8832;DHT22;4452;50.756;4.472;2022-09-03T17:50:21;23.50;99.90
8832;DHT22;4452;50.756;4.472;2022-09-03T17:53:19;23.10;99.90
8832;DHT22;4452;50.756;4.472;2022-09-03T17:55:59;23.10;99.90
8832;DHT22;4452;50.756;4.472;2022-09-03T17:58:42;23.10;99.90
8832;DHT22;4452;50.756;4.472;2022-09-03T18:01:16;22.80;99.90
8832;DHT22;4452;50.756;4.472;2022-09-03T18:03:56;22.60;99.90
8832;DHT22;4452;50.756;4.472;2022-09-03T18:12:02;22.40;99.90
8832;DHT22;4452;50.756;4.472;2022-09-03T18:14:39;22.40;99.90
8832;DHT22;4452;50.756;4.472;2022-09-03T18:17:43;22.40;99.90
8832;DHT22;4452;50.756;4.472;2022-09-03T18:20:12;22.20;99.90
8832;DHT22;4452;50.756;4.472;2022-09-03T18:23:25;21.80;99.90
8832;DHT22;4452;50.756;4.472;2022-09-03T18:26:24;21.90;99.90
8832;DHT22;4452;50.756;4.472;2022-09-03T18:29:28;22.00;99.90
8832;DHT22;4452;50.756;4.472;2022-09-03T18:32:14;21.90;99.90
8832;DHT22;4452;50.756;4.472;2022-09-03T18:34:59;21.60;99.90
8832;DHT22;4452;50.756;4.472;2022-09-03T18:37:44;21.00;99.90
8832;DHT22;4452;50.756;4.472;2022-09-03T18:57:19;20.80;99.90
8832;DHT22;4452;50.756;4.472;2022-09-03T19:00:13;20.50;99.90
8832;DHT22;4452;50.756;4.472;2022-09-03T19:21:37;20.20;99.90
8832;DHT22;4452;50.756;4.472;2022-09-03T19:24:28;20.10;99.90
8832;DHT22;4452;50.756;4.472;2022-09-03T19:27:27;20.10;99.90
8832;DHT22;4452;50.756;4.472;2022-09-03T19:51:40;20.10;99.90
8832;DHT22;4452;50.756;4.472;2022-09-03T19:54:28;20.10;99.90
8832;DHT22;4452;50.756;4.472;2022-09-03T19:57:15;20.00;99.90
8832;DHT22;4452;50.756;4.472;2022-09-03T20:00:02;20.10;99.90
8832;DHT22;4452;50.756;4.472;2022-09-03T20:02:47;20.00;99.90
8832;DHT22;4452;50.756;4.472;2022-09-03T20:05:33;20.10;99.90
8832;DHT22;4452;50.756;4.472;2022-09-03T20:08:20;20.10;99.90
8832;DHT22;4452;50.756;4.472;2022-09-03T20:11:15;19.90;99.90
8832;DHT22;4452;50.756;4.472;2022-09-03T20:13:42;19.90;99.90
8832;DHT22;4452;50.756;4.472;2022-09-03T20:19:47;19.70;99.90
8832;DHT22;4452;50.756;4.472;2022-09-03T20:22:36;19.50;99.90
8832;DHT22;4452;50.756;4.472;2022-09-03T20:25:38;19.50;99.90
8832;DHT22;4452;50.756;4.472;2022-09-03T20:28:22;19.30;99.90
8832;DHT22;4452;50.756;4.472;2022-09-03T20:30:59;18.80;99.90
8832;DHT22;4452;50.756;4.472;2022-09-03T20:34:08;18.60;99.90
8832;DHT22;4452;50.756;4.472;2022-09-03T20:36:30;18.60;99.90
8832;DHT22;4452;50.756;4.472;2022-09-03T20:41:49;18.60;99.90
8832;DHT22;4452;50.756;4.472;2022-09-03T20:57:57;18.20;99.90
8832;DHT22;4452;50.756;4.472;2022-09-03T21:00:43;18.20;99.90
8832;DHT22;4452;50.756;4.472;2022-09-03T21:22:20;18.00;99.90
8832;DHT22;4452;50.756;4.472;2022-09-03T21:24:52;18.10;99.90
8832;DHT22;4452;50.756;4.472;2022-09-03T21:27:25;18.00;99.90
8832;DHT22;4452;50.756;4.472;2022-09-03T21:30:02;18.00;99.90
8832;DHT22;4452;50.756;4.472;2022-09-03T21:32:40;18.00;99.90
8832;DHT22;4452;50.756;4.472;2022-09-03T21:35:26;17.90;99.90
8832;DHT22;4452;50.756;4.472;2022-09-03T21:38:30;17.60;99.90
8832;DHT22;4452;50.756;4.472;2022-09-03T21:46:07;17.70;99.90
8832;DHT22;4452;50.756;4.472;2022-09-03T21:48:41;17.80;99.90
8832;DHT22;4452;50.756;4.472;2022-09-03T21:51:34;17.80;99.90
8832;DHT22;4452;50.756;4.472;2022-09-03T21:54:28;17.80;99.90
8832;DHT22;4452;50.756;4.472;2022-09-03T22:02:28;17.80;99.90
8832;DHT22;4452;50.756;4.472;2022-09-03T22:04:55;17.70;99.90
8832;DHT22;4452;50.756;4.472;2022-09-03T22:10:00;17.70;99.90
8832;DHT22;4452;50.756;4.472;2022-09-03T22:15:21;17.80;99.90
8832;DHT22;4452;50.756;4.472;2022-09-03T22:20:24;17.90;99.90
8832;DHT22;4452;50.756;4.472;2022-09-03T22:22:54;17.90;99.90
8832;DHT22;4452;50.756;4.472;2022-09-03T22:28:25;17.80;99.90
8832;DHT22;4452;50.756;4.472;2022-09-03T22:31:20;17.80;99.90
8832;DHT22;4452;50.756;4.472;2022-09-03T22:33:55;17.80;99.90
8832;DHT22;4452;50.756;4.472;2022-09-03T22:36:29;17.80;99.90
8832;DHT22;4452;50.756;4.472;2022-09-03T22:50:39;17.70;99.90
8832;DHT22;4452;50.756;4.472;2022-09-03T22:55:48;17.70;99.90
8832;DHT22;4452;50.756;4.472;2022-09-03T22:58:21;17.60;99.90
8832;DHT22;4452;50.756;4.472;2022-09-03T23:01:14;17.60;99.90